HTL weather

Roscommon County - Blodgett Memorial Airport
Houghton Lake, Michigan, United States

Public forecast

Using degrees Fahrenheit for public forecast. Weather courtesy of forecast.io.

Current aviation weather report (METAR) for Roscommon County - Blodgett Memorial Airport

Retrieved 2019/10/16 02:53 UTC (22 minutes ago):

KHTL 160253Z AUTO 11004KT 5SM -RA BR SCT018 BKN027 OVC034 08/07 A2965 RMK AO2 RAB0157 SLP046 P0011 60014 T00830072 58017

Closest aviation forecast (TAF) to Roscommon County - Blodgett Memorial Airport

Closest forecast is Cherry Capital Airport, 45.2 nm (83.7 km) WNW. Retrieved 2019-10-16 00:24 UTC (3 hours ago):

TAF KTVC 152322Z 1600/1624 09008KT P6SM -SHRA VCTS SCT025 OVC035CB FM160100 11007KT P6SM -SHRA VCTS OVC022CB FM160200 13007KT P6SM -SHRA OVC016 FM160400 17007KT P6SM VCSH OVC010 FM160900 27006KT P6SM -SHRA OVC011 FM161100 31010KT P6SM -SHRA OVC008 FM161300 33014G27KT P6SM -SHRA OVC011 FM162300 34017G31KT P6SM -SHRA OVC020